sensor_id;sensor_type;location;lat;lon;timestamp;pressure;altitude;pressure_sealevel;temperature
68745;BMP180;66104;45.456;11.064;2023-01-13T00:00:29;101081.80;;;7.20
68745;BMP180;66104;45.456;11.064;2023-01-13T00:03:06;101075.40;;;7.10
68745;BMP180;66104;45.456;11.064;2023-01-13T00:05:42;101078.20;;;7.00
68745;BMP180;66104;45.456;11.064;2023-01-13T00:08:19;101072.20;;;7.00
68745;BMP180;66104;45.456;11.064;2023-01-13T00:10:58;101073.00;;;6.90
68745;BMP180;66104;45.456;11.064;2023-01-13T00:13:34;101069.00;;;6.90
68745;BMP180;66104;45.456;11.064;2023-01-13T00:16:14;101065.40;;;6.90
68745;BMP180;66104;45.456;11.064;2023-01-13T00:18:50;101063.40;;;6.90
68745;BMP180;66104;45.456;11.064;2023-01-13T00:21:28;101059.60;;;7.00
68745;BMP180;66104;45.456;11.064;2023-01-13T00:24:06;101062.60;;;7.00
68745;BMP180;66104;45.456;11.064;2023-01-13T00:26:43;101059.60;;;7.00
68745;BMP180;66104;45.456;11.064;2023-01-13T00:29:19;101066.00;;;7.00
68745;BMP180;66104;45.456;11.064;2023-01-13T00:31:55;101069.80;;;7.00
68745;BMP180;66104;45.456;11.064;2023-01-13T00:34:32;101070.00;;;6.96
68745;BMP180;66104;45.456;11.064;2023-01-13T00:37:09;101069.80;;;6.90
68745;BMP180;66104;45.456;11.064;2023-01-13T00:39:47;101065.40;;;6.90
68745;BMP180;66104;45.456;11.064;2023-01-13T00:42:25;101070.00;;;6.90
68745;BMP180;66104;45.456;11.064;2023-01-13T00:45:20;101071.00;;;6.90
68745;BMP180;66104;45.456;11.064;2023-01-13T00:48:16;101061.40;;;7.00
68745;BMP180;66104;45.456;11.064;2023-01-13T00:50:58;101062.20;;;7.00
68745;BMP180;66104;45.456;11.064;2023-01-13T00:53:38;101066.60;;;7.02
68745;BMP180;66104;45.456;11.064;2023-01-13T00:56:18;101070.80;;;7.10
68745;BMP180;66104;45.456;11.064;2023-01-13T00:59:12;101072.00;;;7.00
68745;BMP180;66104;45.456;11.064;2023-01-13T01:01:47;101074.20;;;7.00
68745;BMP180;66104;45.456;11.064;2023-01-13T01:04:25;101068.40;;;7.00
68745;BMP180;66104;45.456;11.064;2023-01-13T01:07:02;101069.80;;;7.00
68745;BMP180;66104;45.456;11.064;2023-01-13T01:09:39;101075.00;;;7.00
68745;BMP180;66104;45.456;11.064;2023-01-13T01:12:15;101077.00;;;7.00
68745;BMP180;66104;45.456;11.064;2023-01-13T01:14:52;101074.40;;;7.00
68745;BMP180;66104;45.456;11.064;2023-01-13T01:17:30;101072.40;;;7.00
68745;BMP180;66104;45.456;11.064;2023-01-13T01:20:13;101075.20;;;7.10
68745;BMP180;66104;45.456;11.064;2023-01-13T01:22:52;101069.00;;;7.10
68745;BMP180;66104;45.456;11.064;2023-01-13T01:25:28;101064.40;;;7.10
68745;BMP180;66104;45.456;11.064;2023-01-13T01:28:05;101062.40;;;7.10
68745;BMP180;66104;45.456;11.064;2023-01-13T01:30:44;101062.40;;;7.10
68745;BMP180;66104;45.456;11.064;2023-01-13T01:33:21;101057.60;;;7.16
68745;BMP180;66104;45.456;11.064;2023-01-13T01:35:57;101051.80;;;7.10
68745;BMP180;66104;45.456;11.064;2023-01-13T01:38:36;101052.80;;;7.10
68745;BMP180;66104;45.456;11.064;2023-01-13T01:41:16;101051.00;;;7.00
68745;BMP180;66104;45.456;11.064;2023-01-13T01:43:55;101044.80;;;7.00
68745;BMP180;66104;45.456;11.064;2023-01-13T01:46:42;101046.80;;;7.00
68745;BMP180;66104;45.456;11.064;2023-01-13T01:49:25;101039.60;;;7.00
68745;BMP180;66104;45.456;11.064;2023-01-13T01:52:10;101035.60;;;7.00
68745;BMP180;66104;45.456;11.064;2023-01-13T01:54:55;101030.80;;;7.00
68745;BMP180;66104;45.456;11.064;2023-01-13T01:57:44;101027.40;;;7.00
68745;BMP180;66104;45.456;11.064;2023-01-13T02:00:22;101025.60;;;7.00
68745;BMP180;66104;45.456;11.064;2023-01-13T02:03:04;101025.00;;;6.90
68745;BMP180;66104;45.456;11.064;2023-01-13T02:05:41;101021.60;;;6.90
68745;BMP180;66104;45.456;11.064;2023-01-13T02:08:19;101014.80;;;6.80
68745;BMP180;66104;45.456;11.064;2023-01-13T02:10:57;101014.40;;;6.80
68745;BMP180;66104;45.456;11.064;2023-01-13T02:13:37;101014.20;;;6.70
68745;BMP180;66104;45.456;11.064;2023-01-13T02:16:21;101019.00;;;6.70
68745;BMP180;66104;45.456;11.064;2023-01-13T02:19:13;101017.60;;;6.70
68745;BMP180;66104;45.456;11.064;2023-01-13T02:22:29;101016.00;;;6.70
68745;BMP180;66104;45.456;11.064;2023-01-13T02:25:47;101018.80;;;6.70
68745;BMP180;66104;45.456;11.064;2023-01-13T02:28:58;101016.60;;;6.70
68745;BMP180;66104;45.456;11.064;2023-01-13T02:32:02;101007.60;;;6.70
68745;BMP180;66104;45.456;11.064;2023-01-13T02:34:47;101005.40;;;6.70
68745;BMP180;66104;45.456;11.064;2023-01-13T02:37:35;101005.20;;;6.66
68745;BMP180;66104;45.456;11.064;2023-01-13T02:40:21;100999.20;;;6.60
68745;BMP180;66104;45.456;11.064;2023-01-13T02:43:05;100993.60;;;6.50
68745;BMP180;66104;45.456;11.064;2023-01-13T02:46:06;100990.40;;;6.50
68745;BMP180;66104;45.456;11.064;2023-01-13T02:48:49;100982.60;;;6.42
68745;BMP180;66104;45.456;11.064;2023-01-13T02:51:32;100983.40;;;6.40
68745;BMP180;66104;45.456;11.064;2023-01-13T02:54:16;100980.40;;;6.50
68745;BMP180;66104;45.456;11.064;2023-01-13T02:56:55;100971.60;;;6.50
68745;BMP180;66104;45.456;11.064;2023-01-13T02:59:35;100965.20;;;6.50
68745;BMP180;66104;45.456;11.064;2023-01-13T03:02:17;100954.60;;;6.54
68745;BMP180;66104;45.456;11.064;2023-01-13T03:04:58;100945.20;;;6.60
68745;BMP180;66104;45.456;11.064;2023-01-13T03:08:25;100948.60;;;6.60
68745;BMP180;66104;45.456;11.064;2023-01-13T03:11:09;100959.80;;;6.50
68745;BMP180;66104;45.456;11.064;2023-01-13T03:14:16;100949.60;;;6.48
68745;BMP180;66104;45.456;11.064;2023-01-13T03:17:13;100952.20;;;6.48
68745;BMP180;66104;45.456;11.064;2023-01-13T03:20:03;100955.60;;;6.48
68745;BMP180;66104;45.456;11.064;2023-01-13T03:22:50;100960.20;;;6.50
68745;BMP180;66104;45.456;11.064;2023-01-13T03:25:30;100959.60;;;6.50
68745;BMP180;66104;45.456;11.064;2023-01-13T03:28:18;100957.80;;;6.50
68745;BMP180;66104;45.456;11.064;2023-01-13T03:31:02;100959.80;;;6.40
68745;BMP180;66104;45.456;11.064;2023-01-13T03:33:44;100963.40;;;6.40
68745;BMP180;66104;45.456;11.064;2023-01-13T03:36:27;100955.40;;;6.40
68745;BMP180;66104;45.456;11.064;2023-01-13T03:39:11;100956.80;;;6.32
68745;BMP180;66104;45.456;11.064;2023-01-13T03:41:56;100960.00;;;6.38
68745;BMP180;66104;45.456;11.064;2023-01-13T03:44:37;100960.00;;;6.40
68745;BMP180;66104;45.456;11.064;2023-01-13T03:47:24;100955.80;;;6.40
68745;BMP180;66104;45.456;11.064;2023-01-13T03:50:11;100955.60;;;6.40
68745;BMP180;66104;45.456;11.064;2023-01-13T03:52:52;100953.80;;;6.40
68745;BMP180;66104;45.456;11.064;2023-01-13T03:55:36;100953.80;;;6.50
68745;BMP180;66104;45.456;11.064;2023-01-13T03:58:16;100955.60;;;6.40
68745;BMP180;66104;45.456;11.064;2023-01-13T04:00:59;100957.60;;;6.40
68745;BMP180;66104;45.456;11.064;2023-01-13T04:03:42;100953.60;;;6.30
68745;BMP180;66104;45.456;11.064;2023-01-13T04:06:32;100946.00;;;6.30
68745;BMP180;66104;45.456;11.064;2023-01-13T04:09:22;100946.40;;;6.28
68745;BMP180;66104;45.456;11.064;2023-01-13T04:12:12;100944.00;;;6.26
68745;BMP180;66104;45.456;11.064;2023-01-13T04:14:51;100942.40;;;6.20
68745;BMP180;66104;45.456;11.064;2023-01-13T04:17:29;100938.00;;;6.20
68745;BMP180;66104;45.456;11.064;2023-01-13T04:20:12;100936.00;;;6.20
68745;BMP180;66104;45.456;11.064;2023-01-13T04:22:49;100937.60;;;6.20
68745;BMP180;66104;45.456;11.064;2023-01-13T04:25:26;100937.60;;;6.20
68745;BMP180;66104;45.456;11.064;2023-01-13T04:28:03;100938.60;;;6.20
68745;BMP180;66104;45.456;11.064;2023-01-13T04:30:40;100937.80;;;6.20
68745;BMP180;66104;45.456;11.064;2023-01-13T04:33:17;100932.60;;;6.20
68745;BMP180;66104;45.456;11.064;2023-01-13T04:35:54;100939.20;;;6.20
68745;BMP180;66104;45.456;11.064;2023-01-13T04:38:31;100939.00;;;6.20
68745;BMP180;66104;45.456;11.064;2023-01-13T04:41:08;100945.00;;;6.28
68745;BMP180;66104;45.456;11.064;2023-01-13T04:43:46;100950.80;;;6.30
68745;BMP180;66104;45.456;11.064;2023-01-13T04:46:22;100951.80;;;6.30
68745;BMP180;66104;45.456;11.064;2023-01-13T04:48:59;100952.20;;;6.22
68745;BMP180;66104;45.456;11.064;2023-01-13T04:51:44;100948.00;;;6.20
68745;BMP180;66104;45.456;11.064;2023-01-13T04:54:20;100942.60;;;6.20
68745;BMP180;66104;45.456;11.064;2023-01-13T04:56:58;100949.60;;;6.20
68745;BMP180;66104;45.456;11.064;2023-01-13T04:59:34;100949.60;;;6.10
68745;BMP180;66104;45.456;11.064;2023-01-13T05:02:13;100947.40;;;6.00
68745;BMP180;66104;45.456;11.064;2023-01-13T05:04:53;100948.00;;;5.90
68745;BMP180;66104;45.456;11.064;2023-01-13T05:07:30;100954.20;;;5.90
68745;BMP180;66104;45.456;11.064;2023-01-13T05:10:13;100957.20;;;5.90
68745;BMP180;66104;45.456;11.064;2023-01-13T05:12:52;100953.00;;;5.90
68745;BMP180;66104;45.456;11.064;2023-01-13T05:15:46;100952.60;;;5.88
68745;BMP180;66104;45.456;11.064;2023-01-13T05:18:39;100948.00;;;5.90
68745;BMP180;66104;45.456;11.064;2023-01-13T05:21:16;100956.80;;;5.90
68745;BMP180;66104;45.456;11.064;2023-01-13T05:24:11;100955.60;;;5.88
68745;BMP180;66104;45.456;11.064;2023-01-13T05:27:16;100959.40;;;5.80
68745;BMP180;66104;45.456;11.064;2023-01-13T05:29:53;100963.80;;;5.80
68745;BMP180;66104;45.456;11.064;2023-01-13T05:32:30;100964.40;;;5.80
68745;BMP180;66104;45.456;11.064;2023-01-13T05:35:12;100971.20;;;5.90
68745;BMP180;66104;45.456;11.064;2023-01-13T05:37:49;100965.60;;;5.90
68745;BMP180;66104;45.456;11.064;2023-01-13T05:40:26;100966.80;;;5.90
68745;BMP180;66104;45.456;11.064;2023-01-13T05:43:21;100967.20;;;5.90
68745;BMP180;66104;45.456;11.064;2023-01-13T05:46:02;100975.60;;;5.90
68745;BMP180;66104;45.456;11.064;2023-01-13T05:48:40;100988.60;;;5.90
68745;BMP180;66104;45.456;11.064;2023-01-13T05:51:16;100989.80;;;5.90
68745;BMP180;66104;45.456;11.064;2023-01-13T05:53:59;100984.80;;;5.90
68745;BMP180;66104;45.456;11.064;2023-01-13T05:56:36;100985.60;;;5.90
68745;BMP180;66104;45.456;11.064;2023-01-13T05:59:13;100977.80;;;5.90
68745;BMP180;66104;45.456;11.064;2023-01-13T06:01:50;100971.40;;;5.90
68745;BMP180;66104;45.456;11.064;2023-01-13T06:04:30;100978.00;;;5.90
68745;BMP180;66104;45.456;11.064;2023-01-13T06:07:07;100978.20;;;5.96
68745;BMP180;66104;45.456;11.064;2023-01-13T06:09:43;100973.80;;;5.98
68745;BMP180;66104;45.456;11.064;2023-01-13T06:12:20;100967.60;;;6.00
68745;BMP180;66104;45.456;11.064;2023-01-13T06:14:56;100964.80;;;6.00
68745;BMP180;66104;45.456;11.064;2023-01-13T06:17:35;100972.20;;;6.00
68745;BMP180;66104;45.456;11.064;2023-01-13T06:20:15;100974.00;;;6.00
68745;BMP180;66104;45.456;11.064;2023-01-13T06:22:53;100976.80;;;6.00
68745;BMP180;66104;45.456;11.064;2023-01-13T06:25:40;100985.80;;;6.06
68745;BMP180;66104;45.456;11.064;2023-01-13T06:28:18;100988.40;;;6.10
68745;BMP180;66104;45.456;11.064;2023-01-13T06:30:58;100979.00;;;6.10
68745;BMP180;66104;45.456;11.064;2023-01-13T06:33:39;100985.60;;;6.10
68745;BMP180;66104;45.456;11.064;2023-01-13T06:36:22;100990.00;;;6.10
68745;BMP180;66104;45.456;11.064;2023-01-13T06:39:03;100988.60;;;6.00
68745;BMP180;66104;45.456;11.064;2023-01-13T06:41:39;100991.00;;;6.00
68745;BMP180;66104;45.456;11.064;2023-01-13T06:44:32;100995.00;;;6.02
68745;BMP180;66104;45.456;11.064;2023-01-13T06:47:10;100993.20;;;6.00
68745;BMP180;66104;45.456;11.064;2023-01-13T06:49:47;100995.00;;;6.00
68745;BMP180;66104;45.456;11.064;2023-01-13T06:52:27;101000.20;;;6.10
68745;BMP180;66104;45.456;11.064;2023-01-13T06:55:06;100999.00;;;6.18
68745;BMP180;66104;45.456;11.064;2023-01-13T06:57:54;100989.40;;;6.22
68745;BMP180;66104;45.456;11.064;2023-01-13T07:00:31;100990.20;;;6.30
68745;BMP180;66104;45.456;11.064;2023-01-13T07:03:16;100992.40;;;6.28
68745;BMP180;66104;45.456;11.064;2023-01-13T07:05:57;101004.00;;;6.26
68745;BMP180;66104;45.456;11.064;2023-01-13T07:08:35;101004.80;;;6.20
68745;BMP180;66104;45.456;11.064;2023-01-13T07:11:12;100993.20;;;6.20
68745;BMP180;66104;45.456;11.064;2023-01-13T07:13:52;100999.60;;;6.20
68745;BMP180;66104;45.456;11.064;2023-01-13T07:16:45;100999.60;;;6.10
68745;BMP180;66104;45.456;11.064;2023-01-13T07:19:21;101011.60;;;6.10
68745;BMP180;66104;45.456;11.064;2023-01-13T07:21:58;101012.00;;;6.14
68745;BMP180;66104;45.456;11.064;2023-01-13T07:24:35;100998.40;;;6.20
68745;BMP180;66104;45.456;11.064;2023-01-13T07:27:13;100997.00;;;6.20
68745;BMP180;66104;45.456;11.064;2023-01-13T07:29:48;100995.80;;;6.20
68745;BMP180;66104;45.456;11.064;2023-01-13T07:32:25;101002.00;;;6.20
68745;BMP180;66104;45.456;11.064;2023-01-13T07:35:02;101009.40;;;6.20
68745;BMP180;66104;45.456;11.064;2023-01-13T07:37:41;101010.60;;;6.20
68745;BMP180;66104;45.456;11.064;2023-01-13T07:40:20;101007.20;;;6.20
68745;BMP180;66104;45.456;11.064;2023-01-13T07:42:56;101008.20;;;6.10
68745;BMP180;66104;45.456;11.064;2023-01-13T07:45:49;101014.00;;;6.10
68745;BMP180;66104;45.456;11.064;2023-01-13T07:48:29;101020.40;;;6.10
68745;BMP180;66104;45.456;11.064;2023-01-13T07:51:14;101018.60;;;6.10
68745;BMP180;66104;45.456;11.064;2023-01-13T07:53:51;101021.00;;;6.10
68745;BMP180;66104;45.456;11.064;2023-01-13T07:56:28;101022.20;;;6.04
68745;BMP180;66104;45.456;11.064;2023-01-13T07:59:05;101023.20;;;6.10
68745;BMP180;66104;45.456;11.064;2023-01-13T08:01:42;101020.60;;;6.10
68745;BMP180;66104;45.456;11.064;2023-01-13T08:04:19;101027.00;;;6.10
68745;BMP180;66104;45.456;11.064;2023-01-13T08:06:56;101037.80;;;6.10
68745;BMP180;66104;45.456;11.064;2023-01-13T08:09:33;101027.00;;;6.10
68745;BMP180;66104;45.456;11.064;2023-01-13T08:12:10;101019.00;;;6.20
68745;BMP180;66104;45.456;11.064;2023-01-13T08:15:12;101021.00;;;6.24
68745;BMP180;66104;45.456;11.064;2023-01-13T08:17:49;101029.80;;;6.30
68745;BMP180;66104;45.456;11.064;2023-01-13T08:20:27;101032.60;;;6.30
68745;BMP180;66104;45.456;11.064;2023-01-13T08:23:04;101038.00;;;6.30
68745;BMP180;66104;45.456;11.064;2023-01-13T08:25:40;101035.20;;;6.30
68745;BMP180;66104;45.456;11.064;2023-01-13T08:28:18;101031.40;;;6.40
68745;BMP180;66104;45.456;11.064;2023-01-13T08:31:00;101026.40;;;6.40
68745;BMP180;66104;45.456;11.064;2023-01-13T08:33:36;101030.40;;;6.30
68745;BMP180;66104;45.456;11.064;2023-01-13T08:36:14;101033.20;;;6.30
68745;BMP180;66104;45.456;11.064;2023-01-13T08:38:51;101027.20;;;6.30
68745;BMP180;66104;45.456;11.064;2023-01-13T08:41:29;101029.00;;;6.40
68745;BMP180;66104;45.456;11.064;2023-01-13T08:44:28;101022.60;;;6.40
68745;BMP180;66104;45.456;11.064;2023-01-13T08:47:05;101014.00;;;6.50
68745;BMP180;66104;45.456;11.064;2023-01-13T08:49:42;101011.60;;;6.50
68745;BMP180;66104;45.456;11.064;2023-01-13T08:52:19;101010.40;;;6.60
68745;BMP180;66104;45.456;11.064;2023-01-13T08:54:56;101008.60;;;6.72
68745;BMP180;66104;45.456;11.064;2023-01-13T08:57:31;101008.20;;;6.80
68745;BMP180;66104;45.456;11.064;2023-01-13T09:00:12;101014.00;;;6.90
68745;BMP180;66104;45.456;11.064;2023-01-13T09:02:50;101017.40;;;6.90
68745;BMP180;66104;45.456;11.064;2023-01-13T09:05:28;101014.60;;;6.92
68745;BMP180;66104;45.456;11.064;2023-01-13T09:08:06;101017.40;;;6.94
68745;BMP180;66104;45.456;11.064;2023-01-13T09:10:42;101016.40;;;6.98
68745;BMP180;66104;45.456;11.064;2023-01-13T09:13:18;101014.40;;;7.00
68745;BMP180;66104;45.456;11.064;2023-01-13T09:15:55;101010.80;;;7.00
68745;BMP180;66104;45.456;11.064;2023-01-13T09:18:32;101008.20;;;7.00
68745;BMP180;66104;45.456;11.064;2023-01-13T09:21:13;101014.60;;;7.10
68745;BMP180;66104;45.456;11.064;2023-01-13T09:23:52;101021.00;;;7.10
68745;BMP180;66104;45.456;11.064;2023-01-13T09:26:30;101028.80;;;7.20
68745;BMP180;66104;45.456;11.064;2023-01-13T09:29:07;101035.00;;;7.20
68745;BMP180;66104;45.456;11.064;2023-01-13T09:31:43;101030.80;;;7.26
68745;BMP180;66104;45.456;11.064;2023-01-13T09:34:21;101031.80;;;7.30
68745;BMP180;66104;45.456;11.064;2023-01-13T09:37:24;101041.60;;;7.30
68745;BMP180;66104;45.456;11.064;2023-01-13T09:40:01;101038.80;;;7.30
68745;BMP180;66104;45.456;11.064;2023-01-13T09:42:48;101045.40;;;7.34
68745;BMP180;66104;45.456;11.064;2023-01-13T09:45:50;101043.00;;;7.40
68745;BMP180;66104;45.456;11.064;2023-01-13T09:48:33;101030.40;;;7.46
68745;BMP180;66104;45.456;11.064;2023-01-13T09:51:35;101011.80;;;7.50
68745;BMP180;66104;45.456;11.064;2023-01-13T09:54:27;101012.80;;;7.50
68745;BMP180;66104;45.456;11.064;2023-01-13T09:57:14;101002.20;;;7.50
68745;BMP180;66104;45.456;11.064;2023-01-13T09:59:51;100994.40;;;7.50
68745;BMP180;66104;45.456;11.064;2023-01-13T10:02:59;100998.80;;;7.50
68745;BMP180;66104;45.456;11.064;2023-01-13T10:05:43;100984.00;;;7.50
68745;BMP180;66104;45.456;11.064;2023-01-13T10:08:28;100987.20;;;7.50
68745;BMP180;66104;45.456;11.064;2023-01-13T10:11:15;100987.80;;;7.60
68745;BMP180;66104;45.456;11.064;2023-01-13T10:14:16;100976.20;;;7.64
68745;BMP180;66104;45.456;11.064;2023-01-13T10:17:03;100978.20;;;7.70
68745;BMP180;66104;45.456;11.064;2023-01-13T10:19:51;100978.80;;;7.78
68745;BMP180;66104;45.456;11.064;2023-01-13T10:22:53;100979.80;;;7.80
68745;BMP180;66104;45.456;11.064;2023-01-13T10:25:49;100968.00;;;7.82
68745;BMP180;66104;45.456;11.064;2023-01-13T10:28:29;100961.60;;;7.84
68745;BMP180;66104;45.456;11.064;2023-01-13T10:31:12;100959.00;;;7.84
68745;BMP180;66104;45.456;11.064;2023-01-13T10:33:50;100958.40;;;7.88
68745;BMP180;66104;45.456;11.064;2023-01-13T10:36:35;100956.60;;;7.90
68745;BMP180;66104;45.456;11.064;2023-01-13T10:39:19;100951.60;;;7.90
68745;BMP180;66104;45.456;11.064;2023-01-13T10:42:05;100953.00;;;7.90
68745;BMP180;66104;45.456;11.064;2023-01-13T10:44:53;100955.00;;;7.90
68745;BMP180;66104;45.456;11.064;2023-01-13T10:47:33;100952.40;;;7.98
68745;BMP180;66104;45.456;11.064;2023-01-13T10:50:30;100954.00;;;8.10
68745;BMP180;66104;45.456;11.064;2023-01-13T10:53:24;100951.20;;;8.20
68745;BMP180;66104;45.456;11.064;2023-01-13T10:56:09;100941.00;;;8.20
68745;BMP180;66104;45.456;11.064;2023-01-13T10:58:50;100935.40;;;8.30
68745;BMP180;66104;45.456;11.064;2023-01-13T11:01:29;100932.40;;;8.30
68745;BMP180;66104;45.456;11.064;2023-01-13T11:04:34;100935.60;;;8.38
68745;BMP180;66104;45.456;11.064;2023-01-13T11:07:27;100933.00;;;8.30
68745;BMP180;66104;45.456;11.064;2023-01-13T11:10:23;100921.60;;;8.30
68745;BMP180;66104;45.456;11.064;2023-01-13T11:13:12;100921.60;;;8.30
68745;BMP180;66104;45.456;11.064;2023-01-13T11:15:56;100918.40;;;8.32
68745;BMP180;66104;45.456;11.064;2023-01-13T11:18:45;100921.80;;;8.30
68745;BMP180;66104;45.456;11.064;2023-01-13T11:21:42;100919.40;;;8.30
68745;BMP180;66104;45.456;11.064;2023-01-13T11:24:29;100914.80;;;8.30
68745;BMP180;66104;45.456;11.064;2023-01-13T11:27:18;100911.20;;;8.30
68745;BMP180;66104;45.456;11.064;2023-01-13T11:30:08;100907.00;;;8.40
68745;BMP180;66104;45.456;11.064;2023-01-13T11:36:02;100901.00;;;8.40
68745;BMP180;66104;45.456;11.064;2023-01-13T11:38:48;100907.00;;;8.32
68745;BMP180;66104;45.456;11.064;2023-01-13T11:41:44;100906.60;;;8.30
68745;BMP180;66104;45.456;11.064;2023-01-13T11:44:48;100909.80;;;8.30
68745;BMP180;66104;45.456;11.064;2023-01-13T11:47:29;100912.80;;;8.30
68745;BMP180;66104;45.456;11.064;2023-01-13T11:50:17;100909.60;;;8.30
68745;BMP180;66104;45.456;11.064;2023-01-13T11:53:11;100902.40;;;8.30
68745;BMP180;66104;45.456;11.064;2023-01-13T11:56:04;100900.80;;;8.30
68745;BMP180;66104;45.456;11.064;2023-01-13T11:59:25;100900.80;;;8.40
68745;BMP180;66104;45.456;11.064;2023-01-13T12:02:24;100888.00;;;8.40
68745;BMP180;66104;45.456;11.064;2023-01-13T12:05:18;100894.00;;;8.40
68745;BMP180;66104;45.456;11.064;2023-01-13T12:08:08;100885.40;;;8.40
68745;BMP180;66104;45.456;11.064;2023-01-13T12:11:02;100878.40;;;8.50
68745;BMP180;66104;45.456;11.064;2023-01-13T12:13:57;100877.60;;;8.50
68745;BMP180;66104;45.456;11.064;2023-01-13T12:16:42;100870.20;;;8.54
68745;BMP180;66104;45.456;11.064;2023-01-13T12:19:27;100864.00;;;8.60
68745;BMP180;66104;45.456;11.064;2023-01-13T12:22:25;100868.40;;;8.60
68745;BMP180;66104;45.456;11.064;2023-01-13T12:25:11;100867.60;;;8.60
68745;BMP180;66104;45.456;11.064;2023-01-13T12:27:57;100857.60;;;8.60
68745;BMP180;66104;45.456;11.064;2023-01-13T12:30:42;100861.40;;;8.60
68745;BMP180;66104;45.456;11.064;2023-01-13T12:33:32;100856.60;;;8.60
68745;BMP180;66104;45.456;11.064;2023-01-13T12:36:23;100850.00;;;8.62
68745;BMP180;66104;45.456;11.064;2023-01-13T12:39:07;100844.20;;;8.70
68745;BMP180;66104;45.456;11.064;2023-01-13T12:41:52;100842.20;;;8.80
68745;BMP180;66104;45.456;11.064;2023-01-13T12:45:23;100839.20;;;8.80
68745;BMP180;66104;45.456;11.064;2023-01-13T12:48:00;100828.00;;;8.88
68745;BMP180;66104;45.456;11.064;2023-01-13T12:50:59;100828.40;;;8.90
68745;BMP180;66104;45.456;11.064;2023-01-13T12:53:38;100823.40;;;8.90
68745;BMP180;66104;45.456;11.064;2023-01-13T12:56:46;100827.60;;;8.88
68745;BMP180;66104;45.456;11.064;2023-01-13T12:59:41;100824.00;;;8.90
68745;BMP180;66104;45.456;11.064;2023-01-13T13:02:40;100819.60;;;8.90
68745;BMP180;66104;45.456;11.064;2023-01-13T13:05:53;100817.40;;;8.90
68745;BMP180;66104;45.456;11.064;2023-01-13T13:08:45;100820.40;;;8.90
68745;BMP180;66104;45.456;11.064;2023-01-13T13:11:43;100814.40;;;9.00
68745;BMP180;66104;45.456;11.064;2023-01-13T13:15:20;100802.20;;;8.96
68745;BMP180;66104;45.456;11.064;2023-01-13T13:18:27;100804.80;;;8.98
68745;BMP180;66104;45.456;11.064;2023-01-13T13:21:06;100808.60;;;9.00
68745;BMP180;66104;45.456;11.064;2023-01-13T13:24:11;100805.40;;;9.00
68745;BMP180;66104;45.456;11.064;2023-01-13T13:26:48;100808.00;;;9.00
68745;BMP180;66104;45.456;11.064;2023-01-13T13:29:45;100804.40;;;9.00
68745;BMP180;66104;45.456;11.064;2023-01-13T13:36:01;100799.00;;;9.10
68745;BMP180;66104;45.456;11.064;2023-01-13T13:39:14;100805.00;;;9.16
68745;BMP180;66104;45.456;11.064;2023-01-13T13:42:21;100809.00;;;9.20
68745;BMP180;66104;45.456;11.064;2023-01-13T13:45:21;100805.80;;;9.20
68745;BMP180;66104;45.456;11.064;2023-01-13T13:48:27;100803.00;;;9.30
68745;BMP180;66104;45.456;11.064;2023-01-13T13:51:24;100803.40;;;9.30
68745;BMP180;66104;45.456;11.064;2023-01-13T13:54:02;100800.60;;;9.30
68745;BMP180;66104;45.456;11.064;2023-01-13T13:56:44;100805.60;;;9.30
68745;BMP180;66104;45.456;11.064;2023-01-13T13:59:25;100803.00;;;9.30
68745;BMP180;66104;45.456;11.064;2023-01-13T14:02:10;100800.60;;;9.30
68745;BMP180;66104;45.456;11.064;2023-01-13T14:04:50;100790.80;;;9.30
68745;BMP180;66104;45.456;11.064;2023-01-13T14:07:49;100792.20;;;9.30
68745;BMP180;66104;45.456;11.064;2023-01-13T14:10:38;100786.60;;;9.40
68745;BMP180;66104;45.456;11.064;2023-01-13T14:13:22;100785.60;;;9.40
68745;BMP180;66104;45.456;11.064;2023-01-13T14:16:01;100787.00;;;9.44
68745;BMP180;66104;45.456;11.064;2023-01-13T14:18:46;100788.80;;;9.50
68745;BMP180;66104;45.456;11.064;2023-01-13T14:21:27;100788.40;;;9.50
68745;BMP180;66104;45.456;11.064;2023-01-13T14:24:14;100795.20;;;9.50
68745;BMP180;66104;45.456;11.064;2023-01-13T14:27:05;100798.60;;;9.46
68745;BMP180;66104;45.456;11.064;2023-01-13T14:29:41;100795.00;;;9.42
68745;BMP180;66104;45.456;11.064;2023-01-13T14:32:21;100800.00;;;9.40
68745;BMP180;66104;45.456;11.064;2023-01-13T14:34:59;100807.00;;;9.50
68745;BMP180;66104;45.456;11.064;2023-01-13T14:37:38;100814.40;;;9.50
68745;BMP180;66104;45.456;11.064;2023-01-13T14:40:46;100815.00;;;9.50
68745;BMP180;66104;45.456;11.064;2023-01-13T14:43:29;100807.40;;;9.44
68745;BMP180;66104;45.456;11.064;2023-01-13T14:46:06;100799.40;;;9.44
68745;BMP180;66104;45.456;11.064;2023-01-13T14:48:45;100804.00;;;9.42
68745;BMP180;66104;45.456;11.064;2023-01-13T14:51:31;100804.00;;;9.50
68745;BMP180;66104;45.456;11.064;2023-01-13T14:54:46;100801.40;;;9.60
68745;BMP180;66104;45.456;11.064;2023-01-13T14:57:30;100805.60;;;9.64
68745;BMP180;66104;45.456;11.064;2023-01-13T15:00:21;100807.80;;;9.70
68745;BMP180;66104;45.456;11.064;2023-01-13T15:03:14;100807.00;;;9.70
68745;BMP180;66104;45.456;11.064;2023-01-13T15:05:55;100803.20;;;9.80
68745;BMP180;66104;45.456;11.064;2023-01-13T15:08:37;100807.00;;;9.80
68745;BMP180;66104;45.456;11.064;2023-01-13T15:11:25;100797.20;;;9.80
68745;BMP180;66104;45.456;11.064;2023-01-13T15:14:07;100803.40;;;9.78
68745;BMP180;66104;45.456;11.064;2023-01-13T15:16:44;100804.20;;;9.80
68745;BMP180;66104;45.456;11.064;2023-01-13T15:19:20;100806.60;;;9.74
68745;BMP180;66104;45.456;11.064;2023-01-13T15:21:57;100808.80;;;9.70
68745;BMP180;66104;45.456;11.064;2023-01-13T15:24:33;100811.00;;;9.70
68745;BMP180;66104;45.456;11.064;2023-01-13T15:27:21;100815.60;;;9.70
68745;BMP180;66104;45.456;11.064;2023-01-13T15:29:59;100810.00;;;9.60
68745;BMP180;66104;45.456;11.064;2023-01-13T15:32:35;100814.40;;;9.60
68745;BMP180;66104;45.456;11.064;2023-01-13T15:35:17;100809.20;;;9.60
68745;BMP180;66104;45.456;11.064;2023-01-13T15:37:55;100820.00;;;9.66
68745;BMP180;66104;45.456;11.064;2023-01-13T15:40:35;100814.40;;;9.60